Creal Reef, Australia
Current Conditions -  °F | °C
As of 10:00 PM on Friday 28 Nov 2014 (Local Time) from YBMK Reporting Station
Broken Clouds Broken Clouds  
Wind Chill: 79°   Ceiling: 3300
Heat Index: 81°   Visibility: 6mi
Dew Point: 66°   Wind: 17mph
Humidity: 65%   Direction: 100°E
Pressure: 29.94"   Gusts: NA
Location:  20.52°S, 150.37°E
Report Text: YBMK 281200Z AUTO 10015KT 9999 // SCT029 BKN033 BKN041 26/19 Q1014
Loading
Personal Weather Stations






























Interactive Weather Map New forecast layout! Learn more

10-Day Weather Forecast

Advertisements
Track Severe Weather on mobile